Terminal Aerodrome Forecast
Issued by NWS Quad Cities IA IL

Home | Current Version | Previous Version | Text Only | Print | Product List | Glossary On
Versions: 1 2 3 4 5 6 7 8 9 10 11 12 13 14 15 16 17 18 19 20 21 22 23 24 25 26 27
000
FTUS43 KDVN 011100 RRA
TAFMLI
TAF
KMLI 011145Z 0112/0212 06015G25KT 3/4SM -SN OVC004
     FM011700 04022G30KT 1/2SM -SN BLSN OVC007
     FM012300 01020G28KT 3SM -SHSN OVC015
     FM020400 34012KT P6SM BKN050=

USA.gov is the U.S. government's official web portal to all federal, state and local government web resources and services.